Terminal Aerodrome Forecast
Issued by NWS

Home | Current Version | Previous Version | Text Only | Print | Product List | Glossary On
Versions: 1 2 3 4 5 6 7 8 9 10 11 12 13 14 15 16 17
000
FTAK31 PANC 042332
TAFAEN
TAF
PAEN 042332Z 0500/0524 06011KT P6SM VCSH SCT040 BKN060
     FM050400 04009KT P6SM SCT060 BKN100
     FM051800 05016G23KT P6SM SCT080 BKN120=

USA.gov is the U.S. government's official web portal to all federal, state and local government web resources and services.